Tiempo atmosférico en la estación meteorológica de Ibias, San Antolin, Asturias (762 m.)



Fecha
DESCASC
Temp. máxima en grados centígrados (hora)
DESCASC
Temp. mínima en grados centígrados (hora)
DESCASC
Temp. media en grados centígrados
DESCASC
Racha de viento máxima en m/sg (hora)
DESCASC
Velocidad máxima media en intervalos de 10 minutos(hora)
DESCASC
Precipitaciones diarias en mm
DESCASC
Precipitaciones de 00:00 a 06:00 en mm
DESCASC
Precipitaciones de 06:00 a 12:00 en mm
DESCASC
Precipitaciones de 12:00 a 18:00 en mm
DESCASC
Precipitaciones de 18:00 a 24:00 en mm
DESCASC
22-11-2020 16.6 (15:00) 7.6 (05:40) 12.1 4.44 (13:10) 2.78 (13:50) 0 0 0 0 0
21-11-2020 17.4 (16:00) 5.2 (06:20) 11.3 4.44 (14:40) 2.5 (14:30) 0 0 0 0 0
20-11-2020 13.5 (15:30) 4.3 (07:40) 8.9 7.22 (09:10) 5 (09:10) 0 0 0 0 0
19-11-2020 15.2 (14:10) 6.6 (00:00) 10.9 5.83 (16:30) 3.61 (21:30) 0 0 0 0 0
18-11-2020 20.5 (15:00) 13.1 (00:00) 16.8 11.94 (04:10) 6.67 (12:10) 0 0 0 0 0
17-11-2020 20.8 (16:20) 7.9 (00:00) 14.3 10.28 (22:50) 6.67 (22:40) 0 0 0 0 0
16-11-2020 12.7 (16:00) 6 (00:00) 9.3 4.17 (01:00) 3.33 (14:50) 0 0 0 0 0
15-11-2020 15.5 (03:40) 8.3 (00:00) 11.9 20.28 (07:00) 13.33 (07:00) 8.6 0 3.6 4 1
14-11-2020 17.2 (14:00) 10.1 (00:00) 13.7 18.33 (13:00) 10.28 (13:00) 0 0 0 0 0
13-11-2020 18 (15:10) 9 (00:00) 13.5 9.17 (22:10) 6.39 (22:20) 0 0 0 0 0
12-11-2020 18.4 (15:10) 9 (00:00) 13.7 8.33 (15:30) 5.56 (15:30) 0 0 0 0 0
11-11-2020 14 (14:50) 7.3 (00:00) 10.7 16.11 (16:30) 9.17 (16:40) 0 0 0 0 0
10-11-2020 14.5 (15:50) 4.5 (00:00) 9.5 5 (16:30) 3.33 (16:10) 0 0 0 0 0
09-11-2020 13.3 (14:10) 8.3 (00:00) 10.8 13.06 (02:10) 6.11 (17:30) 2.4 0 1.8 0.6 0
08-11-2020 16.2 (14:40) 10.1 (00:00) 13.2 17.78 (15:00) 10.56 (15:00) 0.8 0 0 0 0.8
07-11-2020 15.7 (13:40) 9.5 (00:00) 12.6 14.44 (15:00) 8.33 (16:20) 0 0 0 0 0
06-11-2020 17.5 (14:40) 11.6 (00:00) 14.6 19.17 (13:50) 9.17 (15:00) 0.4 0 0 0 0.4
05-11-2020 12.6 (23:00) 4.7 (00:00) 8.7 10.28 (04:40) 6.11 (23:59) 0.2 0 0 0 0.2
04-11-2020 8.7 (12:20) 1.9 (00:00) 5.3 16.39 (20:40) 10 (19:40) 0 0 0 0 0
03-11-2020 8 (14:40) 3.4 (00:00) 5.7 6.94 (11:50) 3.06 (18:40) 0.8 0.4 0.4 0 0
02-11-2020 17.2 (11:00) 6.9 (00:00) 12.1 14.44 (06:50) 8.89 (05:50) 8.4 0 0 7.2 1.2
01-11-2020 18.1 (12:40) 15.9 (00:00) 17 16.67 (12:50) 8.89 (18:40) 0 0 0 0 0
31-10-2020 17.5 (16:10) 13.2 (00:00) 15.3 15 (05:20) 9.17 (11:00) 0 0 0 0 0
30-10-2020 19.5 (15:40) 6.6 (00:00) 13 9.17 (14:40) 6.11 (14:40) 0 0 0 0 0
29-10-2020 16.4 (14:50) 6 (00:00) 11.2 5.83 (16:50) 4.44 (17:10) 0 0 0 0 0
28-10-2020 12.8 (15:20) 8.3 (00:00) 10.6 11.94 (12:20) 7.78 (12:20) 0.6 0.4 0.2 0 0
27-10-2020 13.3 (16:20) 6.8 (00:00) 10.1 16.67 (17:10) 10 (22:40) 1.6 0 0.2 0.2 1.2
26-10-2020 9.3 (13:50) 3.9 (00:00) 6.6 11.94 (16:00) 7.5 (01:40) 2.6 1.8 0.2 0.2 0.4

Gráficas

Temp. máximas Temp. mínimas Temp. medias Precipitaciones Rachas de viento máximas Velocidades máximas media en intervalos de 10 minutos

Datos horarios

Fecha y hora oficial Temperatura (ºC) Velocidad del viento (km/h) Dirección del viento Racha (km/h) Dirección de racha Precipitación (mm) Presión (hPa) Tendencia (hPa) Humedad (%)
2020-11-24 23:00:00 11.8 21 Sur 33 Sur 0 -- -- 65
2020-11-24 22:00:00 11.3 10 Sur 27 Sudeste 0 -- -- 66
2020-11-24 21:00:00 11.6 17 Sur 35 Sur 0 -- -- 65
2020-11-24 20:00:00 11.6 22 Sur 38 Sur 0 -- -- 63
2020-11-24 19:00:00 11.6 12 Sur 25 Sur 0 -- -- 62
2020-11-24 18:00:00 11.5 18 Sur 31 Sudoeste 0 -- -- 61
2020-11-24 17:00:00 12.3 16 Sur 36 Sudoeste 0 -- -- 61
2020-11-24 16:00:00 12.7 21 Sudoeste 45 Sudoeste 0 -- -- 62
2020-11-24 15:00:00 13.6 21 Sudoeste 40 Sudoeste 0 -- -- 61
2020-11-24 14:00:00 13.4 11 Sur 24 Sudoeste 0 -- -- 59
2020-11-24 13:00:00 11.7 10 Sur 19 Sur 0 -- -- 63
2020-11-24 12:00:00 10.4 8 Este 33 Sur 0 -- -- 67
2020-11-24 11:00:00 9.7 20 Sudoeste 32 Sudoeste 0 -- -- 72
2020-11-24 10:00:00 8.8 19 Sudoeste 29 Sudoeste 0 -- -- 70
2020-11-24 09:00:00 7.9 16 Sudoeste 25 Sudoeste 0 -- -- 70
2020-11-24 08:00:00 7.4 14 Sudoeste 19 Sudoeste 0 -- -- 71
2020-11-24 07:00:00 7.7 0 Calma 8 Oeste 0 -- -- 72
2020-11-24 06:00:00 7.9 0 Calma 11 Oeste 0 -- -- 72
2020-11-24 05:00:00 8.2 5 Oeste 9 Noroeste 0 -- -- 74
2020-11-24 04:00:00 8.2 5 Sudoeste 7 Oeste 0 -- -- 75
2020-11-24 03:00:00 8.1 0 Calma 9 Noroeste 0 -- -- 79
2020-11-24 02:00:00 7.8 2 Noroeste 9 Oeste 0 -- -- 82
2020-11-24 01:00:00 8.7 0 Calma 7 Oeste 0 -- -- 78
2020-11-24 00:00:00 9.4 0 Calma 5 Oeste 0 -- -- 74
2020-11-23 23:00:00 9.5 0 Calma 6 Oeste 0 -- -- 74
2020-11-23 22:00:00 10.1 0 Calma 5 Nordeste 0 -- -- 71
2020-11-23 21:00:00 10.6 0 Calma 6 Este 0 -- -- 70
2020-11-23 20:00:00 11.2 0 Calma 3 Este 0 -- -- 69
2020-11-23 19:00:00 11.5 0 Calma 4 Oeste 0 -- -- 70
2020-11-23 18:00:00 12 4 Sudoeste 5 Sudoeste 0 -- -- 62
2020-11-23 17:00:00 14.4 4 Sudoeste 6 Sur 0 -- -- 66
2020-11-23 16:00:00 14.7 0 Calma 6 Sudoeste 0 -- -- 64
2020-11-23 15:00:00 14.6 0 Calma 9 Sudoeste 0 -- -- 61
2020-11-23 14:00:00 13.9 7 Oeste 12 Oeste 0 -- -- 63
2020-11-23 13:00:00 13.2 7 Sudoeste 14 Oeste 0 -- -- 65
2020-11-23 12:00:00 11.3 5 Sudoeste 10 Sudoeste 0 -- -- 72
2020-11-23 11:00:00 9.3 5 Sudoeste 11 Oeste 0 -- -- 78
2020-11-23 10:00:00 7.3 3 Sudoeste 8 Oeste 0 -- -- 83
2020-11-23 09:00:00 5.6 0 Calma 5 Este 0 -- -- 85
2020-11-23 08:00:00 5.5 2 Sudoeste 7 Oeste 0 -- -- 83
2020-11-23 07:00:00 5.6 2 Este 10 Este 0 -- -- 83
2020-11-23 06:00:00 5.9 0 Calma 6 Oeste 0 -- -- 85
2020-11-23 05:00:00 6.2 3 Oeste 17 Oeste 0 -- -- 82
2020-11-23 04:00:00 6 9 Oeste 18 Noroeste 0 -- -- 84
2020-11-23 03:00:00 6.4 9 Este 10 Este 0 -- -- 81
2020-11-23 02:00:00 7.1 0 Calma 4 Nordeste 0 -- -- 81
2020-11-23 01:00:00 7.3 0 Calma 13 Oeste 0 -- -- 80
2020-11-23 00:00:00 7.6 9 Oeste 13 Oeste 0 -- -- 79
2020-11-22 23:00:00 8.9 8 Este 11 Sudeste 0 -- -- 72
2020-11-22 22:00:00 9.6 4 Nordeste 7 Este 0 -- -- 70
2020-11-22 21:00:00 10.3 0 Calma 3 Oeste 0 -- -- 69
2020-11-22 20:00:00 10.7 3 Oeste 9 Oeste 0 -- -- 66
2020-11-22 19:00:00 10.8 8 Oeste 11 Oeste 0 -- -- 66
2020-11-22 18:00:00 12 5 Sudoeste 9 Sudoeste 0 -- -- 60
2020-11-22 17:00:00 15.4 4 Sudoeste 14 Oeste 0 -- -- 50
2020-11-22 16:00:00 16.3 7 Sudoeste 15 Noroeste 0 -- -- 52
2020-11-22 15:00:00 16.6 4 Sudoeste 13 Oeste 0 -- -- 50
2020-11-22 14:00:00 15.8 10 Oeste 16 Oeste 0 -- -- 48
2020-11-22 13:00:00 15.2 7 Oeste 14 Noroeste 0 -- -- 53
2020-11-22 12:00:00 13.8 5 Sur 9 Sur 0 -- -- 60
2020-11-22 11:00:00 12.5 0 Calma 6 Sudoeste 0 -- -- 65
2020-11-22 10:00:00 11.6 0 Calma 6 Este 0 -- -- 65
2020-11-22 09:00:00 8.5 6 Este 8 Este 0 -- -- 63
2020-11-22 08:00:00 8.6 0 Calma 5 Sudeste 0 -- -- 63
2020-11-22 07:00:00 8.5 3 Sudeste 6 Este 0 -- -- 64
2020-11-22 06:00:00 8.6 0 Calma 13 Noroeste 0 -- -- 72
2020-11-22 05:00:00 9.3 0 Calma 8 Este 0 -- -- 64
2020-11-22 04:00:00 9.5 0 Calma 9 Este 0 -- -- 65
2020-11-22 03:00:00 9.7 0 Calma 8 Sudeste 0 -- -- 66
2020-11-22 02:00:00 9.8 0 Calma 6 Este 0 -- -- 67
2020-11-22 01:00:00 10.4 0 Calma 6 Noroeste 0 -- -- 74
2020-11-22 00:00:00 9.3 6 Oeste 9 Oeste 0 -- -- 79
2020-11-21 23:00:00 10.4 6 Este 8 Este 0 -- -- 69
2020-11-21 22:00:00 11 0 Calma 6 Oeste 0 -- -- 71
2020-11-21 21:00:00 11.2 0 Calma 4 Nordeste 0 -- -- 68
2020-11-21 20:00:00 11.9 0 Calma 5 Norte 0 -- -- 67
2020-11-21 19:00:00 12.3 0 Calma 4 Nordeste 0 -- -- 66
2020-11-21 18:00:00 13.3 0 Calma 10 Noroeste 0 -- -- 60
2020-11-21 17:00:00 15.8 8 Noroeste 11 Noroeste 0 -- -- 54
2020-11-21 16:00:00 17.4 5 Norte 9 Sudoeste 0 -- -- 53
2020-11-21 15:00:00 16.8 0 Calma 16 Sudoeste 0 -- -- 55
2020-11-21 14:00:00 16.4 4 Sudoeste 9 Sudoeste 0 -- -- 59
2020-11-21 13:00:00 15.1 5 Nordeste 8 Nordeste 0 -- -- 60
2020-11-21 12:00:00 12.9 3 Sur 9 Sudoeste 0 -- -- 70
2020-11-21 11:00:00 10.4 5 Sudoeste 10 Oeste 0 -- -- 78
2020-11-21 10:00:00 8.3 6 Oeste 9 Oeste 0 -- -- 83
2020-11-21 09:00:00 6.4 0 Calma 10 Nordeste 0 -- -- 86
2020-11-21 08:00:00 6.2 0 Calma 2 Nordeste 0 -- -- 86
2020-11-21 07:00:00 5.6 2 Oeste 9 Nordeste 0 -- -- 91
2020-11-21 06:00:00 5.7 7 Oeste 9 Oeste 0 -- -- 90
2020-11-21 05:00:00 6.4 2 Nordeste 6 Nordeste 0 -- -- 90
2020-11-21 04:00:00 6.6 0 Calma 6 Nordeste 0 -- -- 90
2020-11-21 03:00:00 6.6 2 Nordeste 5 Norte 0 -- -- 90
2020-11-21 02:00:00 6.6 0 Calma 8 Nordeste 0 -- -- 90
2020-11-21 01:00:00 6.8 5 Nordeste 9 Norte 0 -- -- 88
2020-11-21 00:00:00 7 5 Norte 9 Norte 0 -- -- 86
2020-11-20 23:00:00 7.7 0 Calma 8 Sudoeste 0 -- -- 86
2020-11-20 22:00:00 8.5 4 Nordeste 18 Sudeste 0 -- -- 82
2020-11-20 21:00:00 9.1 13 Sudeste 21 Sudeste 0 -- -- 81
2020-11-20 20:00:00 8.1 8 Nordeste 10 Nordeste 0 -- -- 83
2020-11-20 19:00:00 9.2 6 Norte 17 Norte 0 -- -- 77
2020-11-20 18:00:00 10.5 4 Nordeste 12 Norte 0 -- -- 73
2020-11-20 17:00:00 12.3 7 Norte 14 Norte 0 -- -- 67
2020-11-20 16:00:00 13.1 8 Norte 12 Noroeste 0 -- -- 65
2020-11-20 15:00:00 13.1 6 Noroeste 11 Noroeste 0 -- -- 64
2020-11-20 14:00:00 12.6 7 Noroeste 13 Noroeste 0 -- -- 66
2020-11-20 13:00:00 11.3 4 Este 13 Nordeste 0 -- -- 71
2020-11-20 12:00:00 9.5 3 Norte 11 Noroeste 0 -- -- 78
2020-11-20 11:00:00 8.5 4 Nordeste 8 Nordeste 0 -- -- 83
2020-11-20 10:00:00 7.3 3 Sudeste 26 Sudeste 0 -- -- 88
2020-11-20 09:00:00 5.3 17 Sudeste 26 Sudeste 0 -- -- 97
2020-11-20 08:00:00 4.5 4 Norte 9 Este 0 -- -- 100
2020-11-20 07:00:00 4.7 6 Nordeste 8 Norte 0 -- -- 100
2020-11-20 06:00:00 5.1 4 Norte 12 Norte 0 -- -- 100
2020-11-20 05:00:00 5.4 5 Norte 13 Norte 0 -- -- 99
2020-11-20 04:00:00 5.5 8 Norte 12 Norte 0 -- -- 99
2020-11-20 03:00:00 5.8 6 Norte 10 Nordeste 0 -- -- 99
2020-11-20 02:00:00 6.2 3 Nordeste 10 Este 0 -- -- 99
2020-11-20 01:00:00 6.3 4 Nordeste 11 Norte 0 -- -- 98
2020-11-20 00:00:00 6.6 8 Norte 12 Norte 0 -- -- 99
2020-11-19 23:00:00 7.1 4 Nordeste 16 Noroeste 0 -- -- 99
2020-11-19 22:00:00 7.4 9 Norte 19 Norte 0 -- -- 98
2020-11-19 21:00:00 7.2 8 Norte 12 Este 0 -- -- 97
2020-11-19 20:00:00 7.9 3 Nordeste 13 Norte 0 -- -- 94
2020-11-19 19:00:00 9.3 9 Norte 18 Nordeste 0 -- -- 91
2020-11-19 18:00:00 10 12 Nordeste 20 Nordeste 0 -- -- 90
2020-11-19 17:00:00 10.8 9 Norte 21 Norte 0 -- -- 90
2020-11-19 16:00:00 13.6 7 Norte 13 Noroeste 0 -- -- 80
2020-11-19 15:00:00 14.5 6 Nordeste 13 Noroeste -- -- -- 78
2020-11-19 14:00:00 15 5 Nordeste 11 Norte 0 -- -- 78
2020-11-19 13:00:00 13.6 6 Nordeste 13 Nordeste 0 -- -- 82
2020-11-19 12:00:00 12.7 6 Este 11 Norte 0 -- -- 86
2020-11-19 11:00:00 10.8 2 Este 8 Este 0 -- -- 100
2020-11-19 10:00:00 9.8 5 Nordeste 12 Nordeste 0 -- -- 99
2020-11-19 09:00:00 9.3 8 Este 12 Norte 0 -- -- 99
2020-11-19 08:00:00 9.7 8 Norte 12 Nordeste 0 -- -- 99
2020-11-19 07:00:00 10 5 Norte 15 Nordeste 0 -- -- 98
2020-11-19 06:00:00 10.1 9 Norte 13 Norte 0 -- -- 98
2020-11-19 05:00:00 10.4 5 Nordeste 12 Nordeste 0 -- -- 97
2020-11-19 04:00:00 11 5 Nordeste 18 Norte 0 -- -- 96
2020-11-19 03:00:00 11.2 8 Noroeste 16 Noroeste 0 -- -- 95
2020-11-19 02:00:00 11.4 9 Noroeste 20 Noroeste 0 -- -- 91
2020-11-19 01:00:00 11.7 11 Oeste 14 Oeste 0 -- -- 90
2020-11-19 00:00:00 13.1 5 Sudeste 13 Sudeste 0 -- -- 85
2020-11-18 23:00:00 13.6 8 Noroeste 10 Noroeste 0 -- -- 82
2020-11-18 22:00:00 14 4 Sudoeste 17 Oeste 0 -- -- 83
2020-11-18 21:00:00 14.2 13 Oeste 20 Sudoeste 0 -- -- 84
2020-11-18 20:00:00 14.8 16 Oeste 21 Sudoeste 0 -- -- 77
2020-11-18 19:00:00 15.3 7 Oeste 10 Oeste 0 -- -- 72
2020-11-18 18:00:00 15.8 6 Sudoeste 8 Sudoeste 0 -- -- 72
2020-11-18 17:00:00 17.5 5 Oeste 17 Oeste 0 -- -- 68
2020-11-18 16:00:00 19.8 13 Oeste 31 Sudoeste 0 -- -- 62
2020-11-18 15:00:00 20.5 19 Oeste 31 Oeste 0 -- -- 53
2020-11-18 14:00:00 20.2 14 Sudoeste 32 Sudoeste 0 -- -- 55
2020-11-18 13:00:00 19.5 18 Sudoeste 37 Sudoeste 0 -- -- 55
2020-11-18 12:00:00 18.7 18 Sudoeste 33 Sudoeste 0 -- -- 58
2020-11-18 11:00:00 17.4 17 Sudoeste 36 Sudoeste 0 -- -- 62
2020-11-18 10:00:00 16.3 18 Sudoeste 36 Sudoeste 0 -- -- 66
2020-11-18 09:00:00 15 18 Sudoeste 40 Sudoeste 0 -- -- 72
2020-11-18 08:00:00 15 19 Sudoeste 41 Sudoeste 0 -- -- 73
2020-11-18 07:00:00 15.3 12 Sudoeste 32 Sudoeste 0 -- -- 72
2020-11-18 06:00:00 15.9 10 Sudeste 37 Sur 0 -- -- 70
2020-11-18 05:00:00 15.8 12 Sur 43 Sur 0 -- -- 71
2020-11-18 04:00:00 16.2 15 Sur 37 Sudoeste 0 -- -- 71
2020-11-18 03:00:00 16.2 13 Sur 25 Oeste 0 -- -- 70
2020-11-18 02:00:00 15.9 11 Sur 26 Sur 0 -- -- 67
2020-11-18 01:00:00 16.2 14 Sur 27 Sur 0 -- -- 63
2020-11-18 00:00:00 16.5 15 Sudeste 32 Sur 0 -- -- 55
2020-11-17 23:00:00 16.6 20 Sur 37 Sur 0 -- -- 53
2020-11-17 22:00:00 16.6 23 Sur 32 Sudoeste 0 -- -- 52
2020-11-17 21:00:00 16.6 18 Sur 27 Sur 0 -- -- 53
2020-11-17 20:00:00 17.1 15 Sudeste 21 Sur 0 -- -- 52
2020-11-17 19:00:00 17.8 16 Sur 28 Sur 0 -- -- 48
2020-11-17 18:00:00 18.4 17 Sur 23 Sur 0 -- -- 45
2020-11-17 17:00:00 20.2 10 Sur 19 Sudeste 0 -- -- 43
2020-11-17 16:00:00 20.6 5 Sudoeste 10 Sur 0 -- -- 49
2020-11-17 15:00:00 19.6 0 Calma 11 Sudoeste 0 -- -- 54
2020-11-17 14:00:00 18.2 7 Sudoeste 14 Oeste 0 -- -- 58
2020-11-17 13:00:00 16.7 8 Oeste 16 Oeste 0 -- -- 61
2020-11-17 12:00:00 15 7 Sudoeste 13 Sudoeste 0 -- -- 66
2020-11-17 11:00:00 13.1 3 Sur 13 Sudeste 0 -- -- 73
2020-11-17 10:00:00 12.4 5 Sudeste 14 Sudeste 0 -- -- 58
2020-11-17 09:00:00 10.7 6 Sudeste 20 Sudeste 0 -- -- 62
2020-11-17 08:00:00 9.4 6 Sudeste 15 Sudeste 0 -- -- 67
2020-11-17 07:00:00 8.8 0 Calma 10 Oeste 0 -- -- 71
2020-11-17 06:00:00 9.6 6 Sur 17 Sudeste 0 -- -- 67
2020-11-17 05:00:00 8.8 3 Sur 14 Sudeste 0 -- -- 73
2020-11-17 04:00:00 8.3 5 Sur 12 Sudeste 0 -- -- 78
2020-11-17 03:00:00 8.4 3 Sudoeste 15 Sudoeste 0 -- -- 79
2020-11-17 02:00:00 8.2 3 Oeste 12 Sudeste 0 -- -- 84
2020-11-17 01:00:00 8.4 6 Este 10 Este 0 -- -- 81
2020-11-17 00:00:00 8.3 3 Este 6 Este 0 -- -- 89
2020-11-16 23:00:00 8.7 0 Calma 6 Oeste 0 -- -- 93
2020-11-16 22:00:00 9.1 0 Calma 4 Este 0 -- -- 91
2020-11-16 21:00:00 9.3 0 Calma 6 Norte 0 -- -- 91
2020-11-16 20:00:00 9.5 3 Este 5 Nordeste 0 -- -- 91
2020-11-16 19:00:00 9.9 0 Calma 3 Oeste 0 -- -- 88
2020-11-16 18:00:00 10.8 0 Calma 2 Sudoeste 0 -- -- 84
2020-11-16 17:00:00 12.3 3 Nordeste 7 Nordeste 0 -- -- 75
2020-11-16 16:00:00 12.7 4 Sudoeste 13 Oeste 0 -- -- 85
2020-11-16 15:00:00 11.4 10 Oeste 14 Oeste 0 -- -- 88
2020-11-16 14:00:00 11.2 4 Sudoeste 10 Sudoeste 0 -- -- 92
2020-11-16 13:00:00 9.5 4 Noroeste 11 Oeste 0 -- -- 97
2020-11-16 12:00:00 8.8 5 Nordeste 9 Nordeste 0 -- -- 100
2020-11-16 11:00:00 7.5 0 Calma 7 Este 0 -- -- 100
2020-11-16 10:00:00 6.9 4 Nordeste 7 Nordeste 0 -- -- 99
2020-11-16 09:00:00 6 5 Noroeste 8 Noroeste 0 -- -- 99
2020-11-16 08:00:00 6.5 0 Calma 7 Nordeste 0 -- -- 98
2020-11-16 07:00:00 7.2 3 Este 8 Sudeste 0 -- -- 97
2020-11-16 06:00:00 7.3 3 Oeste 8 Oeste 0 -- -- 97
2020-11-16 05:00:00 7.6 4 Oeste 6 Nordeste 0 -- -- 97
2020-11-16 04:00:00 7.8 0 Calma 4 Sudoeste 0 -- -- 98
2020-11-16 03:00:00 8.1 0 Calma 8 Oeste 0 -- -- 98
2020-11-16 02:00:00 8.1 3 Sudoeste 10 Oeste 0 -- -- 98
2020-11-16 01:00:00 8.5 10 Oeste 15 Oeste 0 -- -- 98
2020-11-16 00:00:00 8.5 0 Calma 8 Oeste 0 -- -- 98
2020-11-15 23:00:00 8.4 3 Oeste 14 Oeste 0 -- -- 99
2020-11-15 22:00:00 8.3 14 Oeste 23 Oeste 0.2 -- -- 99
2020-11-15 21:00:00 9.2 16 Oeste 24 Oeste 0.4 -- -- 97
2020-11-15 20:00:00 10.3 13 Oeste 28 Oeste 0.4 -- -- 97
2020-11-15 19:00:00 10.7 9 Oeste 34 Sudoeste 0 -- -- 96
2020-11-15 18:00:00 11 15 Sudoeste 33 Oeste 0 -- -- 95
2020-11-15 17:00:00 11.1 22 Oeste 47 Oeste 0 -- -- 95
2020-11-15 16:00:00 11.5 19 Sudoeste 48 Oeste 0.4 -- -- 96
2020-11-15 15:00:00 11.4 16 Oeste 58 Oeste 3.4 -- -- 97
2020-11-15 14:00:00 14.3 33 Sudoeste 67 Sudoeste 0.2 -- -- 87
2020-11-15 13:00:00 14.7 41 Sudoeste 68 Sudoeste 0 -- -- 82
2020-11-15 12:00:00 14.6 39 Sudoeste 67 Sudoeste 0 -- -- 84
2020-11-15 11:00:00 14.2 41 Sudoeste 60 Sudoeste 0.6 -- -- 88
2020-11-15 10:00:00 13.6 35 Sudoeste 55 Sudoeste 1.2 -- -- 93
2020-11-15 09:00:00 13.2 27 Sudoeste 65 Sudoeste 1.8 -- -- 93
2020-11-15 08:00:00 15.2 38 Sudoeste 71 Sudoeste 0 -- -- 78
2020-11-15 07:00:00 15.1 48 Sudoeste 73 Sudoeste 0 -- -- 79
2020-11-15 06:00:00 15.2 32 Sudoeste 57 Sudoeste 0 -- -- 77
2020-11-15 05:00:00 14 13 Sur 53 Sudoeste 0 -- -- 85
2020-11-15 04:00:00 15 24 Sudoeste 54 Sudoeste 0 -- -- 75
2020-11-15 03:00:00 15.2 24 Sur 56 Sudoeste 0 -- -- 72
2020-11-15 02:00:00 15.2 32 Sudoeste 58 Sur 0 -- -- 73
2020-11-15 01:00:00 14.5 31 Sur 53 Sur 0 -- -- 79
2020-11-15 00:00:00 14.5 19 Sudoeste 40 Sudoeste 0 -- -- 77
2020-11-14 23:00:00 14.8 21 Sudoeste 60 Sudoeste 0 -- -- 73
2020-11-14 22:00:00 14.9 34 Sudoeste 51 Sudoeste 0 -- -- 70
2020-11-14 21:00:00 14.9 26 Sur 56 Sudoeste 0 -- -- 67
2020-11-14 20:00:00 15 26 Sur 53 Sur 0 -- -- 68
2020-11-14 19:00:00 15 26 Sudoeste 51 Sur 0 -- -- 68
2020-11-14 18:00:00 15 17 Sudoeste 44 Sur 0 -- -- 69
2020-11-14 17:00:00 15.7 28 Sudoeste 63 Sudoeste 0 -- -- 66
2020-11-14 16:00:00 16.1 16 Sur 51 Sudoeste 0 -- -- 65
2020-11-14 15:00:00 15.8 23 Sur 63 Sudoeste 0 -- -- 64
2020-11-14 14:00:00 17.2 31 Sudoeste 66 Sudoeste 0 -- -- 59
2020-11-14 13:00:00 16.1 37 Sudoeste 66 Sudoeste 0 -- -- 60
2020-11-14 12:00:00 15.2 23 Sur 39 Sur 0 -- -- 58
2020-11-14 11:00:00 14.6 15 Sur 46 Sur 0 -- -- 57
2020-11-14 10:00:00 14.6 22 Sur 48 Sudeste 0 -- -- 54
2020-11-14 09:00:00 12.5 13 Sur 35 Sudoeste 0 -- -- 63
2020-11-14 08:00:00 11.8 22 Sur 37 Sur 0 -- -- 64
2020-11-14 07:00:00 12 27 Sur 35 Sur 0 -- -- 59
2020-11-14 06:00:00 10.5 22 Sudoeste 26 Sudoeste 0 -- -- 67
2020-11-14 05:00:00 12.3 17 Sur 24 Sur 0 -- -- 54
2020-11-14 04:00:00 11.5 9 Sur 24 Sur 0 -- -- 60
2020-11-14 03:00:00 11.4 15 Sur 23 Sur 0 -- -- 60
2020-11-14 02:00:00 10.4 5 Oeste 8 Oeste 0 -- -- 70
2020-11-14 01:00:00 10.4 4 Sudeste 18 Sur 0 -- -- 72
2020-11-14 00:00:00 11.1 11 Sudeste 24 Sur 0 -- -- 71
2020-11-13 23:00:00 10.3 10 Sudoeste 33 Sudoeste 0 -- -- 76
2020-11-13 22:00:00 10.5 17 Sudoeste 28 Sudoeste 0 -- -- 75
2020-11-13 21:00:00 12.1 6 Sudeste 12 Sur 0 -- -- 68
2020-11-13 20:00:00 12.5 8 Sudeste 17 Sudoeste 0 -- -- 71
2020-11-13 19:00:00 11.9 14 Sudoeste 23 Sudoeste 0 -- -- 76
2020-11-13 18:00:00 13.3 16 Sudoeste 25 Sudoeste 0 -- -- 70
2020-11-13 17:00:00 16.5 17 Oeste 29 Sudoeste 0 -- -- 57
2020-11-13 16:00:00 17.6 19 Sudoeste 26 Sudoeste 0 -- -- 49
2020-11-13 15:00:00 17.9 10 Oeste 23 Oeste 0 -- -- 49
2020-11-13 14:00:00 17.6 8 Oeste 23 Sur 0 -- -- 51
2020-11-13 13:00:00 16.3 6 Noroeste 16 Sudoeste 0 -- -- 58
2020-11-13 12:00:00 15 4 Sudoeste 17 Oeste 0 -- -- 63
2020-11-13 11:00:00 13.4 7 Oeste 10 Oeste 0 -- -- 66
2020-11-13 10:00:00 12.3 0 Calma 10 Sur 0 -- -- 68
2020-11-13 09:00:00 9.9 3 Norte 11 Sudoeste 0 -- -- 72
2020-11-13 08:00:00 10.5 5 Sudoeste 18 Sur 0 -- -- 68
2020-11-13 07:00:00 11.1 12 Sudeste 18 Sur 0 -- -- 64
2020-11-13 06:00:00 11.7 16 Sur 22 Sur 0 -- -- 63
2020-11-13 05:00:00 11.2 13 Sur 21 Sur 0 -- -- 63
2020-11-13 04:00:00 10.7 11 Sudoeste 16 Sur 0 -- -- 64
2020-11-13 03:00:00 9.4 14 Sudoeste 18 Sudoeste 0 -- -- 68
2020-11-13 02:00:00 10.8 9 Sudoeste 12 Sudoeste 0 -- -- 64
2020-11-13 01:00:00 11.1 3 Oeste 8 Sudoeste 0 -- -- 64
2020-11-13 00:00:00 11.1 10 Oeste 19 Sudoeste 0 -- -- 75
2020-11-12 23:00:00 11.4 6 Oeste 12 Sudoeste 0 -- -- 67
2020-11-12 22:00:00 11.8 9 Sudoeste 22 Sudoeste 0 -- -- 70
2020-11-12 21:00:00 11.6 15 Sudoeste 20 Sudoeste 0 -- -- 71
2020-11-12 20:00:00 12.1 10 Sudoeste 21 Sudoeste 0 -- -- 71
2020-11-12 19:00:00 11.7 16 Sudoeste 18 Sudoeste 0 -- -- 75
2020-11-12 18:00:00 13.2 14 Sudoeste 16 Sudoeste 0 -- -- 70
2020-11-12 17:00:00 16.7 8 Sudoeste 23 Sudoeste 0 -- -- 62
2020-11-12 16:00:00 17.4 15 Sudoeste 30 Sudoeste 0 -- -- 55
2020-11-12 15:00:00 18.3 14 Sudoeste 27 Sudoeste 0 -- -- 53
2020-11-12 14:00:00 17.8 5 Nordeste 10 Norte 0 -- -- 64
2020-11-12 13:00:00 17.1 5 Sudoeste 20 Sudoeste 0 -- -- 65
2020-11-12 12:00:00 15.4 14 Sudoeste 20 Sudoeste 0 -- -- 66
2020-11-12 11:00:00 12.9 8 Oeste 11 Oeste 0 -- -- 78
2020-11-12 10:00:00 11.8 6 Oeste 14 Oeste 0 -- -- 84
2020-11-12 09:00:00 9 12 Oeste 15 Oeste 0 -- -- 92
2020-11-12 08:00:00 9.9 5 Oeste 13 Oeste 0 -- -- 94
2020-11-12 07:00:00 10.3 5 Este 17 Sudeste 0 -- -- 91
2020-11-12 06:00:00 10 6 Este 21 Sur 0 -- -- 95
2020-11-12 05:00:00 10.5 15 Sudoeste 23 Sudoeste 0 -- -- 92
2020-11-12 04:00:00 11.7 5 Sudoeste 24 Sudoeste 0 -- -- 83
2020-11-12 03:00:00 12.5 12 Sudoeste 28 Sudoeste 0 -- -- 77
2020-11-12 02:00:00 12.7 7 Sudoeste 22 Sur 0 -- -- 74
2020-11-12 01:00:00 12.3 5 Sur 15 Sur 0 -- -- 73
2020-11-12 00:00:00 11.9 5 Sur 21 Este 0 -- -- 69
2020-11-11 23:00:00 11.7 10 Este 30 Sudoeste 0 -- -- 68
2020-11-11 22:00:00 11.9 12 Sudoeste 35 Sudoeste 0 -- -- 66
2020-11-11 21:00:00 12 7 Sudeste 43 Sudoeste 0 -- -- 64
2020-11-11 20:00:00 12.7 22 Sudoeste 46 Sudoeste 0 -- -- 60
2020-11-11 19:00:00 13 23 Sudoeste 41 Sudoeste 0 -- -- 56
2020-11-11 18:00:00 13.3 24 Sudoeste 53 Sudoeste 0 -- -- 52
2020-11-11 17:00:00 13.7 21 Sudoeste 58 Sudoeste 0 -- -- 50
2020-11-11 16:00:00 13.6 21 Sur 43 Sudoeste 0 -- -- 51
2020-11-11 15:00:00 13.9 17 Sur 49 Sudoeste 0 -- -- 53
2020-11-11 14:00:00 13.5 15 Sur 44 Sur 0 -- -- 54
2020-11-11 13:00:00 13.2 24 Sudoeste 49 Sudoeste 0 -- -- 56
2020-11-11 12:00:00 13.7 18 Sudoeste 51 Sudoeste 0 -- -- 54
2020-11-11 11:00:00 12.2 6 Sudoeste 23 Sudeste 0 -- -- 64
2020-11-11 10:00:00 11.5 9 Sur 31 Sur 0 -- -- 61
2020-11-11 09:00:00 10 12 Sur 22 Sudoeste 0 -- -- 67
2020-11-11 08:00:00 9.9 14 Sur 26 Sur 0 -- -- 66
2020-11-11 07:00:00 8.5 5 Sur 16 Sudoeste 0 -- -- 74
2020-11-11 06:00:00 7.6 6 Oeste 15 Oeste 0 -- -- 80
2020-11-11 05:00:00 8.1 4 Oeste 15 Oeste 0 -- -- 76
2020-11-11 04:00:00 7.8 8 Sudoeste 17 Oeste 0 -- -- 79
2020-11-11 03:00:00 8.5 2 Sudoeste 16 Oeste 0 -- -- 77
2020-11-11 02:00:00 7.7 10 Oeste 17 Oeste 0 -- -- 87
2020-11-11 01:00:00 8.6 2 Sur 8 Sur 0 -- -- 82
2020-11-11 00:00:00 8.3 4 Oeste 9 Oeste 0 -- -- 87
2020-11-10 23:00:00 8.7 0 Calma 5 Nordeste 0 -- -- 85
2020-11-10 22:00:00 9.1 0 Calma 8 Oeste 0 -- -- 87
2020-11-10 21:00:00 9.7 0 Calma 5 Sudoeste 0 -- -- 84
2020-11-10 20:00:00 9.7 0 Calma 6 Sudoeste 0 -- -- 83
2020-11-10 19:00:00 9.5 7 Oeste 12 Oeste 0 -- -- 85
2020-11-10 18:00:00 12.1 2 Oeste 5 Oeste 0 -- -- 69
2020-11-10 17:00:00 13.5 4 Sudoeste 18 Sudoeste 0 -- -- 68
2020-11-10 16:00:00 14.5 10 Sudoeste 15 Sudoeste 0 -- -- 60
2020-11-10 15:00:00 14.3 7 Sudoeste 16 Oeste 0 -- -- 65
2020-11-10 14:00:00 12.7 11 Oeste 18 Oeste 0 -- -- 80
2020-11-10 13:00:00 11.7 9 Oeste 13 Sudoeste 0 -- -- 84
2020-11-10 12:00:00 10.9 6 Sudoeste 13 Oeste 0 -- -- 88
2020-11-10 11:00:00 9.9 5 Sudoeste 10 Sur 0 -- -- 89
2020-11-10 10:00:00 6.8 0 Calma 8 Sudeste 0 -- -- 98
2020-11-10 09:00:00 5.4 0 Calma 12 Oeste 0 -- -- 99
2020-11-10 08:00:00 6.3 0 Calma 5 Sudeste 0 -- -- 93
2020-11-10 07:00:00 6.8 4 Sudeste 9 Este 0 -- -- 92
2020-11-10 06:00:00 7.3 0 Calma 13 Sudoeste 0 -- -- 94
2020-11-10 05:00:00 8.1 6 Este 10 Este 0 -- -- 95
2020-11-10 04:00:00 8.2 0 Calma 12 Sudoeste 0 -- -- 97
2020-11-10 03:00:00 8.4 7 Oeste 15 Oeste 0 -- -- 97
2020-11-10 02:00:00 8.3 2 Nordeste 10 Oeste 0 -- -- 96
2020-11-10 01:00:00 8.7 0 Calma 7 Sudoeste 0 -- -- 94
2020-11-10 00:00:00 8.7 4 Sudeste 14 Sudoeste 0 -- -- 95
2020-11-09 23:00:00 8.3 12 Sudoeste 15 Sudoeste 0 -- -- 95
2020-11-09 22:00:00 9 5 Sudoeste 10 Sudoeste 0 -- -- 92
2020-11-09 21:00:00 9.5 0 Calma 13 Sudoeste 0 -- -- 91
2020-11-09 20:00:00 9.4 8 Sudoeste 21 Sudoeste 0 -- -- 91
2020-11-09 19:00:00 9.8 16 Sudoeste 22 Sudoeste 0 -- -- 90
2020-11-09 18:00:00 10.1 12 Sudoeste 33 Sudoeste 0 -- -- 90
2020-11-09 17:00:00 11.1 18 Sudoeste 27 Sudoeste 0.2 -- -- 91
2020-11-09 16:00:00 12.1 8 Sudoeste 19 Sudoeste 0.2 -- -- 87
2020-11-09 15:00:00 12.5 13 Sudoeste 25 Sur 0 -- -- 78
2020-11-09 14:00:00 13.1 10 Sur 30 Sudoeste 0 -- -- 82
2020-11-09 13:00:00 11.3 15 Sudoeste 27 Oeste 0.2 -- -- 91
2020-11-09 12:00:00 10.5 13 Sudoeste 35 Sudoeste 0.8 -- -- 93
2020-11-09 11:00:00 10.7 13 Sudoeste 31 Sudoeste 0.6 -- -- 90
2020-11-09 10:00:00 11.3 10 Sudoeste 27 Sudoeste 0 -- -- 83
2020-11-09 09:00:00 10.6 15 Sur 26 Sur 0.2 -- -- 82
2020-11-09 08:00:00 10.4 9 Sudoeste 39 Sudoeste 0.2 -- -- 83
2020-11-09 07:00:00 11.5 11 Sudoeste 27 Sur 0 -- -- 74
2020-11-09 06:00:00 11.6 13 Sur 29 Sudeste 0 -- -- 74
2020-11-09 05:00:00 11.5 15 Sur 30 Sudoeste 0 -- -- 74
2020-11-09 04:00:00 11.8 16 Sur 28 Sur 0 -- -- 73
2020-11-09 03:00:00 11.4 13 Sur 47 Sur 0 -- -- 73
2020-11-09 02:00:00 11.6 21 Sur 33 Sur 0 -- -- 73
2020-11-09 01:00:00 11.6 22 Sur 33 Sur 0 -- -- 74
2020-11-09 00:00:00 11.4 18 Sur 37 Sur 0 -- -- 77
2020-11-08 23:00:00 10.8 18 Sur 30 Sur 0 -- -- 84
2020-11-08 22:00:00 10.6 22 Sudoeste 34 Sudoeste 0.2 -- -- 90
2020-11-08 21:00:00 11.5 22 Sudoeste 36 Sudoeste 0.2 -- -- 82
2020-11-08 20:00:00 10.7 30 Sudoeste 45 Sudoeste 0.4 -- -- 89
2020-11-08 19:00:00 13.6 23 Sur 40 Sur 0 -- -- 60
2020-11-08 18:00:00 14 23 Sur 45 Sur 0 -- -- 61
2020-11-08 17:00:00 14.4 27 Sur 50 Sudoeste 0 -- -- 61
2020-11-08 16:00:00 15 36 Sur 59 Sur 0 -- -- 61
2020-11-08 15:00:00 15.6 38 Sur 64 Sur 0 -- -- 59
2020-11-08 14:00:00 14.7 23 Sudeste 43 Sudeste 0 -- -- 66
2020-11-08 13:00:00 14.6 18 Sur 45 Sur 0 -- -- 65
2020-11-08 12:00:00 14.8 15 Sur 39 Sur 0 -- -- 64
2020-11-08 11:00:00 14.4 21 Sur 42 Sur 0 -- -- 67
2020-11-08 10:00:00 14.1 12 Sur 35 Sur 0 -- -- 68
2020-11-08 09:00:00 13.5 10 Sudeste 40 Sur 0 -- -- 68
2020-11-08 08:00:00 13 16 Sur 36 Sur 0 -- -- 68
2020-11-08 07:00:00 12.8 14 Sur 29 Sudeste 0 -- -- 71
2020-11-08 06:00:00 12.7 11 Sudeste 23 Sur 0 -- -- 75
2020-11-08 05:00:00 11.9 15 Sudeste 23 Sur 0 -- -- 82
2020-11-08 04:00:00 12.8 20 Sur 40 Sur 0 -- -- 74
2020-11-08 03:00:00 12.8 15 Sur 33 Sur 0 -- -- 74
2020-11-08 02:00:00 12.8 16 Sur 28 Sur 0 -- -- 73
2020-11-08 01:00:00 12.9 18 Sur 34 Sur 0 -- -- 71
2020-11-08 00:00:00 12.7 24 Sur 38 Sur 0 -- -- 72
2020-11-07 23:00:00 12.8 10 Sur 26 Sur 0 -- -- 70
2020-11-07 22:00:00 12.5 12 Sur 32 Sur 0 -- -- 70
2020-11-07 21:00:00 13 23 Sur 36 Sudoeste 0 -- -- 70
2020-11-07 20:00:00 13.2 22 Sur 40 Sudeste 0 -- -- 69
2020-11-07 19:00:00 13 17 Sur 36 Sur 0 -- -- 72
2020-11-07 18:00:00 13.1 26 Sur 39 Sur 0 -- -- 72
2020-11-07 17:00:00 13.7 22 Sur 47 Sudoeste 0 -- -- 68
2020-11-07 16:00:00 14.2 25 Sur 44 Sur 0 -- -- 64
2020-11-07 15:00:00 14.7 27 Sur 52 Sur 0 -- -- 61
2020-11-07 14:00:00 15 23 Sur 43 Sudoeste 0 -- -- 57
2020-11-07 13:00:00 15.2 22 Sur 43 Sudoeste 0 -- -- 54
2020-11-07 12:00:00 14.8 17 Sur 28 Sur 0 -- -- 55
2020-11-07 11:00:00 13.6 10 Sudeste 19 Sur 0 -- -- 68
2020-11-07 10:00:00 11.7 6 Sur 26 Sur 0 -- -- 77
2020-11-07 09:00:00 9.9 17 Sudoeste 23 Sudoeste 0 -- -- 83
2020-11-07 08:00:00 10.1 8 Sudoeste 19 Sudoeste 0 -- -- 81
2020-11-07 07:00:00 11 13 Sudoeste 21 Sudoeste 0 -- -- 80
2020-11-07 06:00:00 11.3 9 Sudeste 16 Sudoeste 0 -- -- 83
2020-11-07 05:00:00 11.7 6 Sur 26 Sur 0 -- -- 78
2020-11-07 04:00:00 12.1 15 Sur 22 Sur 0 -- -- 77
2020-11-07 03:00:00 11.4 12 Sudoeste 24 Sudoeste 0 -- -- 83
2020-11-07 02:00:00 11.8 14 Sudoeste 24 Sudoeste 0 -- -- 81
2020-11-07 01:00:00 11.3 21 Sudoeste 28 Sur 0 -- -- 86
2020-11-07 00:00:00 12.7 19 Sur 40 Sur 0 -- -- 74
2020-11-06 23:00:00 13.1 26 Sur 39 Sur 0 -- -- 73
2020-11-06 22:00:00 12.1 19 Sudoeste 48 Sur 0.4 -- -- 92
2020-11-06 21:00:00 16.9 21 Sudeste 44 Sudeste 0 -- -- 60
2020-11-06 20:00:00 16.4 25 Sudeste 60 Sudeste 0 -- -- 68
2020-11-06 19:00:00 16.5 17 Sudeste 53 Sudeste 0 -- -- 64
2020-11-06 18:00:00 16.5 26 Sudeste 47 Sur 0 -- -- 62
2020-11-06 17:00:00 16.2 25 Sudeste 56 Sudeste 0 -- -- 63
2020-11-06 16:00:00 16.9 27 Sudeste 58 Sudeste 0 -- -- 59
2020-11-06 15:00:00 17.3 33 Sudeste 57 Sudeste 0 -- -- 54
2020-11-06 14:00:00 17 24 Este 69 Nordeste 0 -- -- 52
2020-11-06 13:00:00 15.8 21 Este 36 Este 0 -- -- 59
2020-11-06 12:00:00 15 9 Este 45 Sudeste 0 -- -- 65
2020-11-06 11:00:00 14.5 29 Sudeste 54 Este 0 -- -- 65
2020-11-06 10:00:00 14.3 18 Sudeste 46 Sudeste 0 -- -- 67
2020-11-06 09:00:00 13.3 17 Sudeste 34 Este 0 -- -- 68
2020-11-06 08:00:00 12.6 4 Este 36 Este 0 -- -- 67
2020-11-06 07:00:00 12.7 20 Sudeste 46 Sudeste 0 -- -- 69
2020-11-06 06:00:00 13 17 Sudeste 50 Este 0 -- -- 73
2020-11-06 05:00:00 13.1 15 Sudeste 31 Sur 0 -- -- 71
2020-11-06 04:00:00 12.8 20 Sudeste 35 Sudeste 0 -- -- 71
2020-11-06 03:00:00 12 10 Sur 28 Este 0 -- -- 74
2020-11-06 02:00:00 12.1 6 Nordeste 41 Este 0 -- -- 75
2020-11-06 01:00:00 12.8 24 Sudeste 48 Sudeste 0 -- -- 71
2020-11-06 00:00:00 11.6 22 Sudeste 36 Sudeste 0.2 -- -- 84
2020-11-05 23:00:00 12.6 10 Sudeste 21 Sudeste 0 -- -- 73
2020-11-05 22:00:00 11.3 3 Oeste 20 Oeste 0 -- -- 80
2020-11-05 21:00:00 10.8 5 Oeste 12 Noroeste 0 -- -- 84
2020-11-05 20:00:00 10.6 4 Norte 15 Norte 0 -- -- 83
2020-11-05 19:00:00 10.5 9 Noroeste 15 Norte 0 -- -- 80
2020-11-05 18:00:00 10.2 3 Nordeste 21 Nordeste 0 -- -- 81
2020-11-05 17:00:00 10.2 3 Oeste 13 Nordeste 0 -- -- 80
2020-11-05 16:00:00 10.1 4 Oeste 12 Norte 0 -- -- 80
2020-11-05 15:00:00 9.4 2 Norte 10 Noroeste 0 -- -- 81
2020-11-05 14:00:00 9.3 5 Nordeste 11 Nordeste 0 -- -- 80
2020-11-05 13:00:00 8.6 3 Nordeste 12 Nordeste 0 -- -- 83
2020-11-05 12:00:00 8.8 4 Nordeste 11 Nordeste 0 -- -- 80
2020-11-05 11:00:00 7.2 3 Oeste 13 Norte 0 -- -- 86
2020-11-05 10:00:00 6.6 5 Noroeste 24 Nordeste 0 -- -- 85
2020-11-05 09:00:00 5.2 6 Norte 35 Norte 0 -- -- 87
2020-11-05 08:00:00 5.2 13 Norte 30 Norte 0 -- -- 86
2020-11-05 07:00:00 5 15 Norte 29 Norte 0 -- -- 86
2020-11-05 06:00:00 4.9 13 Norte 32 Nordeste 0 -- -- 85
2020-11-05 05:00:00 4.9 18 Norte 37 Norte 0 -- -- 85
2020-11-05 04:00:00 5 11 Norte 30 Norte 0 -- -- 84
2020-11-05 03:00:00 5 12 Norte 24 Norte 0 -- -- 84
2020-11-05 02:00:00 4.8 9 Norte 27 Norte 0 -- -- 84
2020-11-05 01:00:00 5 12 Nordeste 28 Nordeste 0 -- -- 83
2020-11-05 00:00:00 5.4 22 Nordeste 44 Nordeste 0 -- -- 79
2020-11-04 23:00:00 5.4 21 Nordeste 54 Nordeste 0 -- -- 79
2020-11-04 22:00:00 5.9 26 Nordeste 55 Nordeste 0 -- -- 77
2020-11-04 21:00:00 6.1 30 Nordeste 59 Nordeste 0 -- -- 75
2020-11-04 20:00:00 5.9 23 Nordeste 49 Nordeste 0 -- -- 78
2020-11-04 19:00:00 5.8 23 Nordeste 40 Nordeste 0 -- -- 82
2020-11-04 18:00:00 5.8 25 Nordeste 42 Nordeste 0 -- -- 85
2020-11-04 17:00:00 6.4 21 Nordeste 44 Nordeste 0 -- -- 77
2020-11-04 16:00:00 7 22 Nordeste 39 Nordeste 0 -- -- 76
2020-11-04 15:00:00 7.8 20 Nordeste 42 Nordeste 0 -- -- 74
2020-11-04 14:00:00 7.2 24 Nordeste 39 Nordeste 0 -- -- 73
2020-11-04 13:00:00 7.8 20 Nordeste 32 Nordeste 0 -- -- 75
2020-11-04 12:00:00 8.5 14 Nordeste 22 Norte 0 -- -- 78
2020-11-04 11:00:00 6.5 8 Norte 13 Norte 0 -- -- 92
2020-11-04 10:00:00 4.1 5 Norte 10 Norte 0 -- -- 99
2020-11-04 09:00:00 2.6 0 Calma 4 Nordeste 0 -- -- 98
2020-11-04 08:00:00 2 2 Oeste 7 Nordeste 0 -- -- 97
2020-11-04 07:00:00 2.5 0 Calma 7 Nordeste 0 -- -- 97
2020-11-04 06:00:00 2.5 0 Calma 9 Norte 0 -- -- 97
2020-11-04 05:00:00 2.5 0 Calma 6 Nordeste 0 -- -- 97
2020-11-04 04:00:00 2.5 0 Calma 6 Noroeste 0 -- -- 97
2020-11-04 03:00:00 2.5 5 Norte 8 Norte 0 -- -- 95
2020-11-04 02:00:00 2.8 4 Norte 11 Noroeste 0 -- -- 93
2020-11-04 01:00:00 2.9 8 Noroeste 15 Nordeste 0 -- -- 92
2020-11-04 00:00:00 3.4 3 Nordeste 12 Norte 0 -- -- 91
2020-11-03 23:00:00 4.2 2 Nordeste 14 Norte 0 -- -- 90
2020-11-03 22:00:00 4 5 Nordeste 13 Norte 0 -- -- 93
2020-11-03 21:00:00 4 6 Norte 15 Norte 0 -- -- 91
2020-11-03 20:00:00 4.5 9 Nordeste 15 Norte 0 -- -- 89
2020-11-03 19:00:00 5.4 5 Norte 25 Nordeste 0 -- -- 85
2020-11-03 18:00:00 6.1 3 Norte 19 Nordeste 0 -- -- 87
2020-11-03 17:00:00 6.6 6 Nordeste 22 Norte 0 -- -- 83
2020-11-03 16:00:00 7.4 6 Norte 18 Nordeste 0 -- -- 84
2020-11-03 15:00:00 7.9 6 Noroeste 21 Noroeste 0 -- -- 83
2020-11-03 14:00:00 7.3 6 Norte 22 Norte 0 -- -- 85
2020-11-03 13:00:00 7.1 6 Nordeste 21 Nordeste 0 -- -- 94
2020-11-03 12:00:00 6.5 7 Norte 25 Norte 0 -- -- 96
2020-11-03 11:00:00 6.4 6 Este 19 Nordeste 0 -- -- 99
2020-11-03 10:00:00 6.4 6 Nordeste 13 Norte 0 -- -- 100
2020-11-03 09:00:00 5.8 5 Norte 18 Noroeste 0.2 -- -- 100
2020-11-03 08:00:00 5.8 0 Calma 4 Oeste 0.2 -- -- 100
2020-11-03 07:00:00 5.5 0 Calma 6 Sur 0 -- -- 100
2020-11-03 06:00:00 5.2 2 Nordeste 8 Nordeste 0.4 -- -- 100
2020-11-03 05:00:00 5.2 2 Nordeste 9 Oeste 0 -- -- 100
2020-11-03 04:00:00 4.8 2 Nordeste 8 Este 0 -- -- 99
2020-11-03 03:00:00 5.7 3 Este 8 Este 0 -- -- 99
2020-11-03 02:00:00 5.8 3 Noroeste 9 Sudoeste 0 -- -- 98
2020-11-03 01:00:00 6.3 5 Sudoeste 9 Oeste 0 -- -- 98
2020-11-03 00:00:00 6.9 7 Oeste 10 Noroeste 0 -- -- 98
2020-11-02 23:00:00 8 5 Oeste 7 Noroeste 0 -- -- 98
2020-11-02 22:00:00 8.2 5 Oeste 9 Oeste 0 -- -- 98
2020-11-02 21:00:00 8.2 2 Noroeste 14 Noroeste 0.2 -- -- 99
2020-11-02 20:00:00 8.5 6 Oeste 17 Noroeste 0.8 -- -- 99
2020-11-02 19:00:00 9.5 5 Noroeste 10 Noroeste 0.2 -- -- 99
2020-11-02 18:00:00 9.6 6 Oeste 11 Oeste 0.4 -- -- 99
2020-11-02 17:00:00 10.1 6 Oeste 12 Oeste 1 -- -- 99
2020-11-02 16:00:00 10.1 0 Calma 15 Oeste 0.6 -- -- 99
2020-11-02 15:00:00 10.6 7 Oeste 20 Oeste 0.6 -- -- 99
2020-11-02 14:00:00 11 12 Oeste 31 Oeste 2 -- -- 98
2020-11-02 13:00:00 12.1 21 Oeste 37 Oeste 2.6 -- -- 97
2020-11-02 12:00:00 15.6 26 Sudoeste 44 Sudoeste 0 -- -- 87
2020-11-02 11:00:00 17.2 20 Sudoeste 43 Sudoeste 0 -- -- 74
2020-11-02 10:00:00 16.4 15 Sudoeste 44 Sudoeste 0 -- -- 76
2020-11-02 09:00:00 15.4 22 Sudoeste 41 Sudoeste 0 -- -- 79
2020-11-02 08:00:00 15.2 24 Sudoeste 45 Sur 0 -- -- 79
2020-11-02 07:00:00 14.7 24 Sudoeste 52 Sudoeste 0 -- -- 84
2020-11-02 06:00:00 15 31 Sudoeste 51 Sudoeste 0 -- -- 82
2020-11-02 05:00:00 14.9 23 Sudoeste 44 Sudoeste 0 -- -- 82
2020-11-02 04:00:00 14.8 29 Sudoeste 50 Sudoeste 0 -- -- 85
2020-11-02 03:00:00 14.8 20 Sudoeste 49 Oeste 0 -- -- 88
2020-11-02 02:00:00 15.3 26 Sudoeste 50 Sudoeste 0 -- -- 86
2020-11-02 01:00:00 15.6 22 Sudoeste 44 Sudoeste 0 -- -- 85
2020-11-02 00:00:00 17 18 Sudoeste 49 Sudoeste 0 -- -- 75
2020-11-01 23:00:00 17.1 19 Sur 52 Sudoeste 0 -- -- 73
2020-11-01 22:00:00 17.3 25 Sudoeste 48 Sudoeste 0 -- -- 73
2020-11-01 21:00:00 16.9 21 Sur 48 Sudoeste 0 -- -- 75
2020-11-01 20:00:00 17.2 21 Sudoeste 47 Sudoeste 0 -- -- 76
2020-11-01 19:00:00 17.1 27 Sudoeste 51 Sudoeste 0 -- -- 79
2020-11-01 18:00:00 17.6 18 Sur 41 Sudoeste 0 -- -- 77
2020-11-01 17:00:00 17.7 19 Sudoeste 39 Sudeste 0 -- -- 77
2020-11-01 16:00:00 17.9 20 Sudoeste 43 Sudoeste 0 -- -- 77
2020-11-01 15:00:00 17.8 28 Sudoeste 47 Sudoeste 0 -- -- 77
2020-11-01 14:00:00 17.8 20 Sudoeste 51 Sudoeste 0 -- -- 77
2020-11-01 13:00:00 18.1 21 Sudoeste 60 Sudoeste 0 -- -- 75
2020-11-01 12:00:00 17.8 18 Sur 52 Sudoeste 0 -- -- 75
2020-11-01 11:00:00 17.4 27 Sudoeste 49 Sudoeste 0 -- -- 77
2020-11-01 10:00:00 16.8 23 Sudoeste 41 Sudoeste 0 -- -- 78
2020-11-01 09:00:00 16.6 19 Sudoeste 35 Sudoeste 0 -- -- 77
2020-11-01 08:00:00 16.5 13 Sudoeste 38 Sudoeste 0 -- -- 77
2020-11-01 07:00:00 16.5 26 Sudoeste 42 Sudoeste 0 -- -- 77
2020-11-01 06:00:00 16.3 17 Sudoeste 46 Sudoeste 0 -- -- 77
2020-11-01 05:00:00 16.5 23 Sudoeste 48 Sudoeste 0 -- -- 76
2020-11-01 04:00:00 16.4 19 Sudoeste 43 Sur 0 -- -- 74
2020-11-01 03:00:00 16 10 Sur 37 Sudoeste 0 -- -- 75
2020-11-01 02:00:00 16 18 Sudoeste 48 Sur 0 -- -- 75
2020-11-01 01:00:00 16.1 20 Sur 49 Sudoeste 0 -- -- 75
2020-11-01 00:00:00 16.4 25 Sudoeste 54 Sudoeste 0 -- -- 73
2020-10-31 23:00:00 16.4 20 Sur 42 Sudoeste 0 -- -- 72
2020-10-31 22:00:00 16.4 22 Sudoeste 53 Sudoeste 0 -- -- 72
2020-10-31 21:00:00 16.4 25 Sudoeste 51 Sudoeste 0 -- -- 71
2020-10-31 20:00:00 16.5 17 Sudoeste 47 Sudoeste 0 -- -- 72
2020-10-31 19:00:00 16.5 19 Sudoeste 43 Sudoeste 0 -- -- 72
2020-10-31 18:00:00 16.8 9 Sur 41 Sudoeste 0 -- -- 72
2020-10-31 17:00:00 17 24 Sudoeste 45 Sudoeste 0 -- -- 72
2020-10-31 16:00:00 17.4 18 Sur 42 Sudoeste 0 -- -- 69
2020-10-31 15:00:00 16.5 26 Sudoeste 43 Sudoeste 0 -- -- 74
2020-10-31 14:00:00 17 22 Sudoeste 50 Sudoeste 0 -- -- 71
2020-10-31 13:00:00 16.9 20 Sudoeste 46 Sudoeste 0 -- -- 71
2020-10-31 12:00:00 17.3 19 Sudoeste 51 Sudoeste 0 -- -- 68
2020-10-31 11:00:00 16 33 Sudoeste 51 Sudoeste 0 -- -- 72
2020-10-31 10:00:00 15.5 9 Sudeste 34 Sur 0 -- -- 73
2020-10-31 09:00:00 15.2 15 Sur 39 Sur 0 -- -- 71
2020-10-31 08:00:00 14.8 14 Sur 42 Sur 0 -- -- 74
2020-10-31 07:00:00 14.9 19 Sur 53 Sudoeste 0 -- -- 75
2020-10-31 06:00:00 14.8 23 Sur 54 Sudeste 0 -- -- 74
2020-10-31 05:00:00 14.7 21 Sudoeste 51 Sur 0 -- -- 70
2020-10-31 04:00:00 13.9 10 Sudoeste 29 Sudoeste 0 -- -- 66
2020-10-31 03:00:00 14.7 16 Sur 32 Sudeste 0 -- -- 61
2020-10-31 02:00:00 13.6 9 Sur 28 Sur 0 -- -- 65
2020-10-31 01:00:00 13.2 12 Sudoeste 24 Sur 0 -- -- 67
2020-10-31 00:00:00 14.6 13 Sur 23 Sur 0 -- -- 60
2020-10-30 23:00:00 14.6 15 Sur 27 Sur 0 -- -- 62
2020-10-30 22:00:00 14.3 15 Sur 20 Sur 0 -- -- 62
2020-10-30 21:00:00 13.9 15 Sur 20 Sur 0 -- -- 65
2020-10-30 20:00:00 15.3 18 Sur 25 Sur 0 -- -- 60
2020-10-30 19:00:00 15.7 16 Sur 23 Sur 0 -- -- 60
2020-10-30 18:00:00 16 3 Sudoeste 21 Oeste 0 -- -- 68
2020-10-30 17:00:00 18.4 13 Sudoeste 26 Sudoeste 0 -- -- 59
2020-10-30 16:00:00 19.3 16 Sudoeste 26 Sudoeste 0 -- -- 55
2020-10-30 15:00:00 19.2 13 Oeste 33 Sudoeste 0 -- -- 54
2020-10-30 14:00:00 18.7 15 Sudoeste 28 Sur 0 -- -- 52
2020-10-30 13:00:00 15.4 4 Este 13 Oeste 0 -- -- 69
2020-10-30 12:00:00 14 4 Noroeste 13 Noroeste 0 -- -- 75
2020-10-30 11:00:00 12 2 Sudeste 10 Oeste 0 -- -- 81
2020-10-30 10:00:00 10.3 3 Sudoeste 9 Oeste 0 -- -- 88
2020-10-30 09:00:00 8.7 0 Calma 6 Este 0 -- -- 95
2020-10-30 08:00:00 7.1 5 Oeste 6 Oeste 0 -- -- 93
2020-10-30 07:00:00 7.4 0 Calma 4 Oeste 0 -- -- 94
2020-10-30 06:00:00 7 2 Nordeste 10 Oeste 0 -- -- 97
2020-10-30 05:00:00 7.1 6 Oeste 9 Oeste 0 -- -- 95
2020-10-30 04:00:00 7.7 0 Calma -- -- 0 -- -- 96
2020-10-30 03:00:00 7.6 0 Calma 6 Este 0 -- -- 96
2020-10-30 02:00:00 7.8 0 Calma 5 Nordeste 0 -- -- 97
2020-10-30 01:00:00 8.4 0 Calma 4 Este 0 -- -- 97
2020-10-30 00:00:00 8.2 4 Oeste 9 Oeste 0 -- -- 95
2020-10-29 23:00:00 8.9 6 Oeste 8 Oeste 0 -- -- 92
2020-10-29 22:00:00 10.2 0 Calma 2 Oeste 0 -- -- 90
2020-10-29 21:00:00 10.4 0 Calma 5 Oeste 0 -- -- 89
2020-10-29 20:00:00 10.1 5 Noroeste 15 Oeste 0 -- -- 89
2020-10-29 19:00:00 10.7 9 Sudoeste 14 Oeste 0 -- -- 86
2020-10-29 18:00:00 12.2 11 Oeste 21 Oeste 0 -- -- 81
2020-10-29 17:00:00 14.7 15 Oeste 21 Oeste 0 -- -- 72
2020-10-29 16:00:00 15.9 13 Oeste 20 Oeste 0 -- -- 71
2020-10-29 15:00:00 16.3 11 Oeste 18 Oeste 0 -- -- 65
2020-10-29 14:00:00 15.4 7 Sudoeste 14 Sudoeste 0 -- -- 66
2020-10-29 13:00:00 14.2 9 Oeste 15 Oeste 0 -- -- 67
2020-10-29 12:00:00 12.5 10 Oeste 14 Oeste 0 -- -- 73
2020-10-29 11:00:00 11.4 0 Calma 9 Este 0 -- -- 79
2020-10-29 10:00:00 9.3 0 Calma 10 Sudoeste 0 -- -- 86
2020-10-29 09:00:00 8.1 4 Sudeste 10 Este 0 -- -- 87
2020-10-29 08:00:00 6.6 5 Este 8 Sudeste 0 -- -- 91
2020-10-29 07:00:00 6.5 0 Calma 9 Oeste 0 -- -- 94
2020-10-29 06:00:00 6.1 10 Sudoeste 16 Sudoeste 0 -- -- 93
2020-10-29 05:00:00 7.7 10 Sur 14 Sur 0 -- -- 89
2020-10-29 04:00:00 7.8 5 Sur 9 Sudeste 0 -- -- 90
2020-10-29 03:00:00 7.9 2 Sudeste 12 Sur 0 -- -- 90
2020-10-29 02:00:00 8.4 6 Sudoeste 15 Sudoeste 0 -- -- 89
2020-10-29 01:00:00 8.3 9 Sudoeste 13 Sudoeste 0 -- -- 90
2020-10-29 00:00:00 9.3 3 Sur 15 Sudoeste 0 -- -- 82
2020-10-28 23:00:00 10 4 Sudoeste 23 Oeste 0 -- -- 79
2020-10-28 22:00:00 10.2 2 Sudoeste 22 Sudoeste 0 -- -- 84
2020-10-28 21:00:00 10.3 15 Sudoeste 28 Sudoeste 0 -- -- 86
2020-10-28 20:00:00 9.7 11 Sudoeste 21 Sudoeste 0 -- -- 87
2020-10-28 19:00:00 10.2 10 Sudoeste 22 Sudoeste 0 -- -- 84
2020-10-28 18:00:00 10.9 14 Sudoeste 26 Sudoeste 0 -- -- 83
2020-10-28 17:00:00 12.2 19 Sudoeste 30 Sudoeste 0 -- -- 77
2020-10-28 16:00:00 12.4 17 Sudoeste 29 Sudoeste 0 -- -- 75
2020-10-28 15:00:00 12.5 21 Sudoeste 42 Sudoeste 0 -- -- 73
2020-10-28 14:00:00 12.2 14 Sudoeste 41 Oeste 0 -- -- 72
2020-10-28 13:00:00 10.5 20 Oeste 43 Sudoeste 0 -- -- 86
2020-10-28 12:00:00 11.3 21 Sudoeste 36 Sudoeste 0 -- -- 76
2020-10-28 11:00:00 10.5 17 Sur 30 Sur 0 -- -- 79
2020-10-28 10:00:00 9.3 12 Sudoeste 25 Sur 0 -- -- 87
2020-10-28 09:00:00 8.7 10 Sudoeste 23 Sudoeste 0 -- -- 90
2020-10-28 08:00:00 8.3 15 Sudoeste 29 Sudoeste 0 -- -- 91
2020-10-28 07:00:00 8.4 16 Sudoeste 34 Sudoeste 0.2 -- -- 94
2020-10-28 06:00:00 8.6 16 Sudoeste 40 Oeste 0 -- -- 97
2020-10-28 05:00:00 8.9 13 Oeste 30 Sudoeste 0.2 -- -- 97
2020-10-28 04:00:00 9.3 15 Sudoeste 29 Oeste 0 -- -- 91
2020-10-28 03:00:00 9.5 18 Sudoeste 33 Sudoeste 0 -- -- 91
2020-10-28 02:00:00 9.8 23 Sudoeste 42 Sudoeste 0.2 -- -- 94
2020-10-28 01:00:00 10.2 18 Sudoeste 29 Sudoeste 0 -- -- 96
2020-10-28 00:00:00 10.5 14 Sudoeste 41 Oeste 0.6 -- -- 96
2020-10-27 23:00:00 12.3 21 Sudoeste 56 Sudoeste 0 -- -- 92
2020-10-27 22:00:00 12.8 31 Sudoeste 56 Sudoeste 0 -- -- 90
2020-10-27 21:00:00 12.3 16 Sudoeste 41 Sudoeste 0.2 -- -- 94
2020-10-27 20:00:00 12 21 Sudoeste 39 Sudoeste 0.2 -- -- 94
2020-10-27 19:00:00 11.9 14 Sur 55 Sudoeste 0.2 -- -- 93
2020-10-27 18:00:00 13 30 Sudoeste 60 Sudoeste 0 -- -- 83
2020-10-27 17:00:00 12.7 35 Sudoeste 58 Sudoeste 0 -- -- 85
2020-10-27 16:00:00 13.2 29 Sudoeste 56 Sudoeste 0 -- -- 79
2020-10-27 15:00:00 12.1 28 Sudoeste 57 Sudoeste 0.2 -- -- 84
2020-10-27 14:00:00 11.5 21 Sudoeste 48 Sudoeste 0 -- -- 87
2020-10-27 13:00:00 12 23 Sudoeste 53 Sudoeste 0 -- -- 83
2020-10-27 12:00:00 11.1 30 Sudoeste 56 Sur 0 -- -- 87
2020-10-27 11:00:00 10.2 22 Sudoeste 48 Sudoeste 0.2 -- -- 90
2020-10-27 10:00:00 10.2 25 Sudoeste 50 Sudoeste 0 -- -- 85
2020-10-27 09:00:00 9.7 22 Sudoeste 59 Sudoeste 0 -- -- 83
2020-10-27 08:00:00 9.2 32 Sudoeste 59 Sudoeste 0 -- -- 84
2020-10-27 07:00:00 9 30 Sudoeste 58 Sudoeste 0 -- -- 83
2020-10-27 06:00:00 8.5 24 Sudoeste 48 Sudoeste 0 -- -- 86
2020-10-27 05:00:00 8.2 23 Sudoeste 43 Sudoeste 0 -- -- 88
2020-10-27 04:00:00 7.8 26 Sudoeste 50 Sur 0 -- -- 90
2020-10-27 03:00:00 7.3 21 Sudoeste 39 Sudoeste 0 -- -- 92
2020-10-27 02:00:00 7.2 27 Sudoeste 42 Sudoeste 0 -- -- 88
2020-10-27 01:00:00 7 17 Sudoeste 38 Sudoeste 0 -- -- 91
2020-10-27 00:00:00 6.9 27 Sudoeste 42 Oeste 0.2 -- -- 96
2020-10-26 23:00:00 6.8 21 Sudoeste 33 Sudoeste 0 -- -- 96
2020-10-26 22:00:00 7 18 Sudoeste 37 Sudoeste 0 -- -- 94
2020-10-26 21:00:00 7 10 Sudoeste 34 Sudoeste 0 -- -- 93
2020-10-26 20:00:00 6.9 20 Sudoeste 33 Sudoeste 0 -- -- 94
2020-10-26 19:00:00 6.6 19 Sudoeste 35 Sudoeste 0.2 -- -- 94
2020-10-26 18:00:00 7 18 Sudoeste 31 Sudoeste 0 -- -- 87
2020-10-26 17:00:00 7.3 15 Sudoeste 40 Sur 0 -- -- 84
2020-10-26 16:00:00 8.2 24 Sudoeste 43 Sudoeste 0 -- -- 84
2020-10-26 15:00:00 7.7 21 Sudoeste 38 Sudoeste 0.2 -- -- 88
2020-10-26 14:00:00 9.3 18 Sudoeste 34 Sudoeste 0 -- -- 81
2020-10-26 13:00:00 8.3 15 Sudoeste 32 Sudoeste 0 -- -- 87
2020-10-26 12:00:00 7.3 13 Sudoeste 31 Sudoeste 0 -- -- 93
2020-10-26 11:00:00 6.1 12 Sudoeste 26 Sudoeste 0.2 -- -- 96
2020-10-26 10:00:00 5.7 17 Sudoeste 26 Sudoeste 0 -- -- 95
2020-10-26 09:00:00 4.8 15 Sudoeste 26 Sudoeste 0 -- -- 97
2020-10-26 08:00:00 4.4 16 Sudoeste 26 Sudoeste 0 -- -- 96
2020-10-26 07:00:00 4 17 Sudoeste 27 Sudoeste 0 -- -- 96
2020-10-26 06:00:00 3.9 15 Sudoeste 27 Sudoeste 0 -- -- 96
2020-10-26 05:00:00 3.9 19 Sudoeste 33 Sudoeste 0 -- -- 96
2020-10-26 04:00:00 4.1 17 Sudoeste 34 Oeste 0 -- -- 95
2020-10-26 03:00:00 3.9 15 Sudoeste 40 Oeste 0.2 -- -- 95
2020-10-26 02:00:00 4.3 17 Sudoeste 38 Sudoeste 0 -- -- 95
2020-10-26 01:00:00 4.4 8 Sudoeste 35 Oeste 1.6 -- -- 96
2020-10-26 00:00:00 4.6 9 Sudoeste 27 Sudoeste 0 -- -- 94